Kezdőlap
METAR-TAF:

METAR-TAF

Repülőterek :

Hebron Municipal Airport

Hebron, Nebraska, Amerikai Egyesült Államok

földrajzi szélesség: 40-09-08N, földrajzi hosszúság: 097-35-13W, magasság: 447 m

Jelenlegi meteorológiai megfigyelések

A jelentés 23 perccel ezelõtt készült, 20:35 UTC
Észak-északkeleti szél 4 kt
Hőmérséklet 26°C
Páratartalom 42%
Légköri nyomás 1005 hPa
Látótávolság: 16.1 km
Derült ég

METAR: KHJH 262035Z AUTO 02004KT 10SM CLR 26/12 A2967 RMK AO2 T02570118

Idő: 15:58 (20:58 UTC)


TAF: hiányzik

Meteorológiai megfigyelések és előrejelzések több, mint 4000 repülőtéren (METAR és TAF jelentéseket).

A térképen piros és sárga pontok jelzik az elérhető meteorológiai állomásokat.

Mozgassa az egeret a pont fölött, hogy megjelenjen az állomás neve.

Azután kattintson az időjárási megfigyelések és előrejelzések megtekintéséhez.

A térkép megváltoztatása: kattintson a fekete keresztel jelölt zöld gombra ráközelítéshez, a vonallal jelölt zöld gombra távolításhoz, vagy a zöld nyilakra a szomszédos térképek eléréséhez.


METAR-TAF: